createdAt,value
2023-02-05T00:00:26.885Z,60.13
2023-02-05T00:01:29.914Z,60.11
2023-02-05T00:02:33.018Z,60.14
2023-02-05T00:03:37.875Z,60.19
2023-02-05T00:04:40.959Z,60.18
2023-02-05T00:05:43.977Z,60.21
2023-02-05T00:06:47.101Z,60.18
2023-02-05T00:07:50.187Z,60.10
2023-02-05T00:08:53.316Z,60.12
2023-02-05T00:09:56.454Z,60.20
2023-02-05T00:11:01.545Z,60.05
2023-02-05T00:12:04.790Z,60.18
2023-02-05T00:13:08.507Z,60.23
2023-02-05T00:14:11.671Z,60.30
2023-02-05T00:15:14.741Z,60.46
2023-02-05T00:16:20.616Z,60.45
2023-02-05T00:17:23.755Z,60.50
2023-02-05T00:18:26.714Z,60.38
2023-02-05T00:19:29.678Z,60.21
2023-02-05T00:20:32.821Z,60.19
2023-02-05T00:21:35.983Z,60.35
2023-02-05T00:22:38.939Z,60.40
2023-02-05T00:23:42.618Z,60.49
2023-02-05T00:24:45.562Z,60.49
2023-02-05T00:25:48.535Z,60.50
2023-02-05T00:26:51.709Z,60.56
2023-02-05T00:27:54.729Z,60.52
2023-02-05T00:28:57.841Z,60.59
2023-02-05T00:30:00.945Z,60.64
2023-02-05T00:31:10.742Z,60.58
2023-02-05T00:32:13.790Z,60.74
2023-02-05T00:33:16.933Z,60.80
2023-02-05T00:34:20.010Z,60.82
2023-02-05T00:35:23.101Z,60.79
2023-02-05T00:36:26.963Z,60.98
2023-02-05T00:37:30.063Z,61.09
2023-02-05T00:38:33.507Z,61.07
2023-02-05T00:39:36.587Z,61.07
2023-02-05T00:40:39.798Z,60.94
2023-02-05T00:41:44.781Z,60.99
2023-02-05T00:42:47.964Z,61.07
2023-02-05T00:43:51.334Z,61.09
2023-02-05T00:44:54.379Z,61.09
2023-02-05T00:45:57.475Z,61.16
2023-02-05T00:47:00.696Z,61.39
2023-02-05T00:48:05.467Z,61.36
2023-02-05T00:49:08.636Z,61.30
2023-02-05T00:50:12.308Z,61.45
2023-02-05T00:51:15.361Z,61.37
2023-02-05T00:52:18.522Z,61.55
2023-02-05T00:53:23.170Z,61.57
2023-02-05T00:54:26.536Z,61.59
2023-02-05T00:55:29.887Z,61.79
2023-02-05T00:56:32.955Z,61.76
2023-02-05T00:57:36.308Z,61.96
2023-02-05T00:58:39.444Z,62.04
2023-02-05T00:59:42.499Z,62.17
2023-02-05T01:00:46.092Z,62.21
2023-02-05T01:01:49.231Z,62.26
2023-02-05T01:02:53.381Z,62.35
2023-02-05T01:03:56.460Z,62.26
2023-02-05T01:04:59.521Z,62.42
2023-02-05T01:06:02.788Z,62.38
2023-02-05T01:07:05.992Z,62.54
2023-02-05T01:08:10.727Z,62.68
2023-02-05T01:09:13.835Z,62.84
2023-02-05T01:10:18.802Z,62.85
2023-02-05T01:11:21.880Z,63.02
2023-02-05T01:12:26.118Z,63.10
2023-02-05T01:13:29.309Z,63.16
2023-02-05T01:14:32.518Z,63.01
2023-02-05T01:15:36.010Z,63.12
2023-02-05T01:16:39.355Z,63.32
2023-02-05T01:17:42.719Z,63.34
2023-02-05T01:18:45.883Z,63.53
2023-02-05T01:19:48.951Z,63.46
2023-02-05T01:20:52.161Z,63.45
2023-02-05T01:21:55.389Z,63.51
2023-02-05T01:22:58.612Z,63.43
2023-02-05T01:24:01.939Z,63.58
2023-02-05T01:25:05.740Z,63.71
2023-02-05T01:26:09.160Z,63.79
2023-02-05T01:27:12.406Z,63.78
2023-02-05T01:28:15.380Z,63.75
2023-02-05T01:29:18.434Z,63.79
2023-02-05T01:30:22.034Z,63.92
2023-02-05T01:31:26.979Z,64.01
2023-02-05T01:32:30.214Z,64.00
2023-02-05T01:33:33.278Z,64.01
2023-02-05T01:34:36.788Z,64.09
2023-02-05T01:35:41.684Z,64.09
2023-02-05T01:36:45.274Z,64.24
2023-02-05T01:37:48.356Z,64.50
2023-02-05T01:38:53.211Z,64.63
2023-02-05T01:39:56.319Z,64.58
2023-02-05T01:40:59.520Z,64.75
2023-02-05T01:42:04.909Z,64.74
2023-02-05T01:43:16.345Z,64.72
2023-02-05T01:44:23.863Z,64.62
2023-02-05T01:45:32.131Z,64.53
2023-02-05T01:46:37.846Z,64.57
2023-02-05T01:47:40.897Z,64.61
2023-02-05T01:48:47.646Z,64.68
2023-02-05T01:49:52.698Z,64.80
2023-02-05T01:50:59.463Z,64.76
2023-02-05T01:52:09.006Z,64.63
2023-02-05T01:53:15.714Z,64.69
2023-02-05T01:54:22.225Z,64.66
2023-02-05T01:55:26.536Z,64.62
2023-02-05T01:56:42.200Z,64.59
2023-02-05T01:57:46.500Z,64.81
2023-02-05T01:58:56.164Z,64.82
2023-02-05T01:59:59.361Z,64.76
2023-02-05T02:01:02.449Z,64.67
2023-02-05T02:02:06.704Z,64.70
2023-02-05T02:03:13.252Z,64.69
2023-02-05T02:04:23.019Z,64.76
2023-02-05T02:05:26.182Z,64.82
2023-02-05T02:06:29.224Z,64.88
2023-02-05T02:07:32.373Z,65.04
2023-02-05T02:08:35.554Z,65.08
2023-02-05T02:09:40.750Z,65.00
2023-02-05T02:10:45.855Z,65.15
2023-02-05T02:11:49.092Z,65.11
2023-02-05T02:12:54.010Z,64.96
2023-02-05T02:13:59.177Z,64.97
2023-02-05T02:15:05.871Z,64.93
2023-02-05T02:16:09.889Z,64.97
2023-02-05T02:17:16.056Z,64.88
2023-02-05T02:18:26.110Z,64.76
2023-02-05T02:19:42.075Z,64.71
2023-02-05T02:20:48.136Z,64.80
2023-02-05T02:22:31.219Z,64.85
2023-02-05T02:24:02.502Z,64.93
2023-02-05T02:25:32.316Z,64.95
2023-02-05T02:26:55.454Z,64.79
2023-02-05T02:28:11.010Z,64.99
2023-02-05T02:29:23.863Z,65.01
2023-02-05T02:30:36.708Z,64.96
2023-02-05T02:31:46.146Z,64.93
2023-02-05T02:32:55.525Z,64.84
2023-02-05T02:34:07.744Z,64.90
2023-02-05T02:35:26.538Z,65.04
2023-02-05T02:36:36.050Z,65.02
2023-02-05T02:37:45.674Z,65.01
2023-02-05T02:39:16.526Z,65.03
2023-02-05T02:40:25.982Z,65.29
2023-02-05T02:41:45.005Z,65.38
2023-02-05T02:43:00.915Z,65.40
2023-02-05T02:44:13.867Z,65.29
2023-02-05T02:45:19.142Z,65.40
2023-02-05T02:46:34.776Z,65.48
2023-02-05T02:47:41.807Z,65.43
2023-02-05T02:48:47.600Z,65.39
2023-02-05T02:49:54.334Z,65.27
2023-02-05T02:50:59.500Z,65.39
2023-02-05T02:52:06.289Z,65.25
2023-02-05T02:53:12.987Z,65.25
2023-02-05T02:54:19.030Z,65.24
2023-02-05T02:55:24.257Z,65.08
2023-02-05T02:56:29.874Z,65.17
2023-02-05T02:57:35.075Z,65.07
2023-02-05T02:58:41.717Z,65.02
2023-02-05T02:59:47.032Z,64.95
2023-02-05T03:00:52.359Z,65.02
2023-02-05T03:01:59.031Z,64.91
2023-02-05T03:03:05.777Z,64.76
2023-02-05T03:04:15.405Z,64.44
2023-02-05T03:05:22.021Z,64.38
2023-02-05T03:06:27.624Z,64.39
2023-02-05T03:07:42.615Z,64.52
2023-02-05T03:08:49.317Z,64.59
2023-02-05T03:10:02.894Z,64.72
2023-02-05T03:11:12.559Z,64.71
2023-02-05T03:12:15.967Z,64.92
2023-02-05T03:13:19.418Z,64.99
2023-02-05T03:14:24.520Z,64.95
2023-02-05T03:15:27.707Z,65.05
2023-02-05T03:16:32.221Z,64.94
2023-02-05T03:17:36.511Z,64.83
2023-02-05T03:18:40.475Z,64.82
2023-02-05T03:19:44.752Z,64.71
2023-02-05T03:20:51.508Z,64.45
2023-02-05T03:21:58.301Z,64.43
2023-02-05T03:23:01.447Z,64.53
2023-02-05T03:24:04.968Z,64.50
2023-02-05T03:25:08.709Z,64.57
2023-02-05T03:26:24.803Z,64.68
2023-02-05T03:27:28.388Z,64.64
2023-02-05T03:28:31.702Z,64.75
2023-02-05T03:29:38.725Z,64.61
2023-02-05T03:30:59.853Z,64.54
2023-02-05T03:32:24.734Z,64.81
2023-02-05T03:33:44.025Z,64.90
2023-02-05T03:35:02.834Z,65.03
2023-02-05T03:36:18.645Z,64.94
2023-02-05T03:37:40.128Z,64.95
2023-02-05T03:38:55.727Z,65.09
2023-02-05T03:40:05.500Z,64.85
2023-02-05T03:41:18.136Z,64.82
2023-02-05T03:42:30.777Z,64.56
2023-02-05T03:43:40.306Z,64.46
2023-02-05T03:45:04.748Z,64.34
2023-02-05T03:46:34.758Z,64.36
2023-02-05T03:47:47.290Z,64.17
2023-02-05T03:48:57.156Z,64.14
2023-02-05T03:50:12.989Z,64.22
2023-02-05T03:52:47.467Z,64.77
2023-02-05T03:54:05.920Z,64.90
2023-02-05T03:55:21.481Z,65.03
2023-02-05T03:56:40.871Z,65.16
2023-02-05T03:58:02.380Z,65.23
2023-02-05T03:59:06.553Z,65.23
2023-02-05T04:00:11.845Z,65.23
2023-02-05T04:01:19.886Z,65.23
2023-02-05T04:02:23.993Z,65.06
2023-02-05T04:03:27.128Z,65.14
2023-02-05T04:04:30.837Z,64.93
2023-02-05T04:05:34.273Z,64.78
2023-02-05T04:06:38.888Z,64.78
2023-02-05T04:07:42.010Z,64.53
2023-02-05T04:08:45.816Z,64.34
2023-02-05T04:09:48.908Z,64.16
2023-02-05T04:10:52.059Z,64.16
2023-02-05T04:11:55.136Z,63.93
2023-02-05T04:12:58.460Z,64.09
2023-02-05T04:14:01.910Z,64.07
2023-02-05T04:15:07.690Z,64.25
2023-02-05T04:16:12.177Z,64.30
2023-02-05T04:17:15.440Z,64.31
2023-02-05T04:18:19.002Z,64.21
2023-02-05T04:19:22.207Z,63.92
2023-02-05T04:20:25.511Z,63.95
2023-02-05T04:21:28.772Z,63.83
2023-02-05T04:22:31.862Z,63.96
2023-02-05T04:23:34.996Z,63.78
2023-02-05T04:24:38.233Z,63.75
2023-02-05T04:25:41.763Z,63.92
2023-02-05T04:26:45.458Z,63.97
2023-02-05T04:27:49.397Z,64.02
2023-02-05T04:28:52.435Z,64.15
2023-02-05T04:29:56.232Z,64.09
2023-02-05T04:30:59.857Z,64.29
2023-02-05T04:32:03.207Z,64.24
2023-02-05T04:33:06.288Z,64.09
2023-02-05T04:34:09.623Z,64.14
2023-02-05T04:35:14.007Z,64.02
2023-02-05T04:36:17.690Z,64.19
2023-02-05T04:37:21.077Z,64.36
2023-02-05T04:38:24.361Z,64.50
2023-02-05T04:39:27.669Z,64.60
2023-02-05T04:40:30.931Z,64.71
2023-02-05T04:41:34.117Z,64.68
2023-02-05T04:42:37.091Z,64.82
2023-02-05T04:43:40.053Z,64.88
2023-02-05T04:44:43.246Z,64.77
2023-02-05T04:45:46.427Z,64.81
2023-02-05T04:46:49.934Z,64.84
2023-02-05T04:47:52.968Z,64.70
2023-02-05T04:48:56.017Z,64.76
2023-02-05T04:49:59.208Z,64.81
2023-02-05T04:51:09.770Z,64.78
2023-02-05T04:52:12.951Z,64.64
2023-02-05T04:53:16.016Z,64.55
2023-02-05T04:54:19.146Z,64.59
2023-02-05T04:55:22.225Z,64.55
2023-02-05T04:56:25.387Z,64.36
2023-02-05T04:57:30.586Z,64.37
2023-02-05T04:58:33.703Z,64.49
2023-02-05T04:59:36.752Z,64.38
2023-02-05T05:00:40.089Z,64.38
2023-02-05T05:01:43.368Z,64.41
2023-02-05T05:02:46.405Z,64.50
2023-02-05T05:03:49.733Z,64.43
2023-02-05T05:04:52.822Z,64.32
2023-02-05T05:05:55.963Z,64.21
2023-02-05T05:06:59.111Z,63.95
2023-02-05T05:08:02.128Z,63.96
2023-02-05T05:09:05.169Z,64.11
2023-02-05T05:10:08.889Z,64.12
2023-02-05T05:11:14.383Z,64.15
2023-02-05T05:12:17.472Z,63.95
2023-02-05T05:13:20.442Z,63.74
2023-02-05T05:14:23.434Z,63.52
2023-02-05T05:15:26.393Z,63.54
2023-02-05T05:16:29.694Z,63.49
2023-02-05T05:17:33.829Z,63.45
2023-02-05T05:18:37.542Z,63.78
2023-02-05T05:19:40.704Z,63.95
2023-02-05T05:20:44.082Z,64.01
2023-02-05T05:21:47.130Z,64.24
2023-02-05T05:22:50.226Z,64.25
2023-02-05T05:23:53.452Z,64.16
2023-02-05T05:24:56.511Z,64.26
2023-02-05T05:25:59.678Z,64.18
2023-02-05T05:27:02.865Z,63.90
2023-02-05T05:28:05.949Z,63.89
2023-02-05T05:29:11.792Z,63.79
2023-02-05T05:30:15.195Z,63.62
2023-02-05T05:31:19.330Z,63.55
2023-02-05T05:32:22.518Z,63.59
2023-02-05T05:33:26.933Z,63.39
2023-02-05T05:34:30.032Z,63.48
2023-02-05T05:35:34.099Z,63.52
2023-02-05T05:36:39.412Z,63.64
2023-02-05T05:37:42.366Z,63.63
2023-02-05T05:38:45.426Z,63.66
2023-02-05T05:40:06.863Z,63.61
2023-02-05T05:41:37.686Z,63.65
2023-02-05T05:42:59.244Z,63.92
2023-02-05T05:44:02.349Z,64.21
2023-02-05T05:45:05.848Z,64.40
2023-02-05T05:46:09.031Z,64.50
2023-02-05T05:47:11.983Z,64.53
2023-02-05T05:48:15.273Z,64.33
2023-02-05T05:49:18.233Z,64.31
2023-02-05T05:50:21.249Z,64.17
2023-02-05T05:51:26.336Z,63.99
2023-02-05T05:52:32.092Z,63.97
2023-02-05T05:53:34.143Z,64.03
2023-02-05T05:54:37.408Z,63.97
2023-02-05T05:55:41.455Z,63.90
2023-02-05T05:56:44.641Z,63.85
2023-02-05T05:57:47.664Z,63.84
2023-02-05T05:58:51.039Z,63.77
2023-02-05T05:59:53.988Z,63.84
2023-02-05T06:00:57.107Z,64.02
2023-02-05T06:02:01.870Z,63.89
2023-02-05T06:03:05.089Z,63.94
2023-02-05T06:04:08.335Z,64.08
2023-02-05T06:05:11.629Z,64.37
2023-02-05T06:06:14.996Z,64.42
2023-02-05T06:07:17.931Z,64.41
2023-02-05T06:08:21.030Z,64.52
2023-02-05T06:09:24.539Z,64.35
2023-02-05T06:10:27.531Z,64.52
2023-02-05T06:11:30.633Z,64.37
2023-02-05T06:12:33.586Z,64.33
2023-02-05T06:13:36.937Z,64.33
2023-02-05T06:14:39.947Z,64.10
2023-02-05T06:15:43.140Z,63.92
2023-02-05T06:16:46.374Z,63.73
2023-02-05T06:17:49.411Z,63.64
2023-02-05T06:18:53.092Z,63.60
2023-02-05T06:19:56.236Z,63.56
2023-02-05T06:20:59.476Z,63.44
2023-02-05T06:22:03.132Z,63.51
2023-02-05T06:23:06.204Z,63.48
2023-02-05T06:24:09.268Z,63.46
2023-02-05T06:25:12.646Z,63.65
2023-02-05T06:26:16.220Z,63.62
2023-02-05T06:27:19.198Z,63.83
2023-02-05T06:28:22.450Z,63.91
2023-02-05T06:29:25.426Z,63.99
2023-02-05T06:30:28.756Z,64.00
2023-02-05T06:31:31.815Z,64.17
2023-02-05T06:32:34.811Z,64.17
2023-02-05T06:33:37.936Z,64.21
2023-02-05T06:34:40.909Z,64.29
2023-02-05T06:35:43.946Z,64.50
2023-02-05T06:36:47.301Z,64.49
2023-02-05T06:37:50.378Z,64.62
2023-02-05T06:38:53.490Z,64.69
2023-02-05T06:39:56.780Z,64.71
2023-02-05T06:40:59.845Z,64.51
2023-02-05T06:42:03.385Z,64.45
2023-02-05T06:43:06.637Z,64.40
2023-02-05T06:44:10.101Z,64.38
2023-02-05T06:45:13.505Z,64.17
2023-02-05T06:46:16.958Z,64.04
2023-02-05T06:47:19.961Z,64.01
2023-02-05T06:48:22.941Z,63.98
2023-02-05T06:49:26.037Z,64.02
2023-02-05T06:50:29.090Z,63.90
2023-02-05T06:51:32.232Z,63.97
2023-02-05T06:52:35.415Z,63.97
2023-02-05T06:53:38.497Z,63.86
2023-02-05T06:54:43.038Z,63.62
2023-02-05T06:55:46.168Z,63.56
2023-02-05T06:56:49.301Z,63.61
2023-02-05T06:57:52.179Z,63.74
2023-02-05T06:58:55.298Z,63.87
2023-02-05T06:59:58.431Z,63.65
2023-02-05T07:01:02.407Z,63.65
2023-02-05T07:02:06.369Z,63.53
2023-02-05T07:03:09.523Z,63.30
2023-02-05T07:04:12.447Z,63.37
2023-02-05T07:05:15.466Z,63.17
2023-02-05T07:06:18.742Z,63.02
2023-02-05T07:07:21.987Z,62.91
2023-02-05T07:08:24.962Z,62.83
2023-02-05T07:09:28.051Z,62.75
2023-02-05T07:10:31.458Z,62.74
2023-02-05T07:11:34.566Z,62.81
2023-02-05T07:12:37.650Z,62.79
2023-02-05T07:13:40.718Z,62.63
2023-02-05T07:14:43.804Z,62.66
2023-02-05T07:15:46.974Z,62.68
2023-02-05T07:16:50.189Z,62.60
2023-02-05T07:17:53.285Z,62.66
2023-02-05T07:18:57.553Z,62.72
2023-02-05T07:20:00.749Z,62.63
2023-02-05T07:21:09.346Z,62.45
2023-02-05T07:22:16.063Z,62.51
2023-02-05T07:23:19.068Z,62.64
2023-02-05T07:24:22.044Z,62.48
2023-02-05T07:25:25.167Z,62.64
2023-02-05T07:26:28.117Z,62.90
2023-02-05T07:27:31.301Z,63.09
2023-02-05T07:28:34.250Z,63.09
2023-02-05T07:29:37.197Z,63.14
2023-02-05T07:30:40.404Z,62.99
2023-02-05T07:31:43.467Z,62.86
2023-02-05T07:32:46.572Z,62.99
2023-02-05T07:33:49.700Z,63.02
2023-02-05T07:34:52.880Z,63.26
2023-02-05T07:35:55.795Z,63.32
2023-02-05T07:36:58.909Z,63.28
2023-02-05T07:38:02.089Z,63.17
2023-02-05T07:39:05.158Z,62.98
2023-02-05T07:40:09.348Z,62.99
2023-02-05T07:41:14.656Z,62.96
2023-02-05T07:42:17.836Z,62.90
2023-02-05T07:43:22.705Z,62.89
2023-02-05T07:44:25.826Z,62.91
2023-02-05T07:45:29.035Z,62.98
2023-02-05T07:46:32.417Z,62.83
2023-02-05T07:47:35.635Z,62.77
2023-02-05T07:48:38.805Z,62.71
2023-02-05T07:49:41.887Z,62.60
2023-02-05T07:50:45.086Z,62.54
2023-02-05T07:51:48.251Z,62.35
2023-02-05T07:52:51.206Z,62.37
2023-02-05T07:53:54.327Z,62.24
2023-02-05T07:54:57.289Z,62.12
2023-02-05T07:56:04.175Z,62.25
2023-02-05T07:57:07.325Z,62.30
2023-02-05T07:58:10.389Z,62.32
2023-02-05T07:59:13.469Z,62.35
2023-02-05T08:00:17.287Z,62.20
2023-02-05T08:01:20.399Z,62.04
2023-02-05T08:02:23.655Z,61.86
2023-02-05T08:03:26.653Z,61.67
2023-02-05T08:04:29.822Z,61.50
2023-02-05T08:05:33.034Z,61.23
2023-02-05T08:06:36.164Z,60.88
2023-02-05T08:07:39.221Z,60.71
2023-02-05T08:08:42.339Z,60.72
2023-02-05T08:09:45.509Z,60.59
2023-02-05T08:10:58.137Z,60.61
2023-02-05T08:12:01.253Z,60.56
2023-02-05T08:13:04.335Z,60.61
2023-02-05T08:14:07.341Z,60.58
2023-02-05T08:15:10.809Z,60.58
2023-02-05T08:16:15.812Z,60.51
2023-02-05T08:17:19.074Z,60.34
2023-02-05T08:18:22.684Z,60.08
2023-02-05T08:19:25.711Z,60.14
2023-02-05T08:20:28.709Z,60.08
2023-02-05T08:21:31.946Z,59.85
2023-02-05T08:22:37.157Z,59.67
2023-02-05T08:23:40.423Z,59.57
2023-02-05T08:24:43.535Z,59.58
2023-02-05T08:25:46.641Z,59.43
2023-02-05T08:26:50.241Z,59.56
2023-02-05T08:27:53.224Z,59.35
2023-02-05T08:28:56.397Z,58.97
2023-02-05T08:29:59.482Z,58.72
2023-02-05T08:31:11.743Z,58.51
2023-02-05T08:32:14.795Z,58.51
2023-02-05T08:33:18.653Z,58.63
2023-02-05T08:34:21.784Z,58.65
2023-02-05T08:35:25.399Z,58.62
2023-02-05T08:36:28.906Z,58.50
2023-02-05T08:37:32.296Z,58.31
2023-02-05T08:38:35.274Z,58.22
2023-02-05T08:39:38.345Z,58.13
2023-02-05T08:40:41.427Z,58.17
2023-02-05T08:41:44.399Z,58.02
2023-02-05T08:42:49.308Z,58.02
2023-02-05T08:43:52.398Z,57.92
2023-02-05T08:44:57.390Z,57.74
2023-02-05T08:46:00.589Z,57.55
2023-02-05T08:47:03.868Z,57.13
2023-02-05T08:48:06.812Z,56.80
2023-02-05T08:49:09.769Z,56.64
2023-02-05T08:50:13.368Z,56.75
2023-02-05T08:51:18.695Z,56.61
2023-02-05T08:52:21.764Z,56.66
2023-02-05T08:53:24.947Z,56.46
2023-02-05T08:54:28.339Z,56.46
2023-02-05T08:55:31.764Z,56.46
2023-02-05T08:56:35.399Z,56.24
2023-02-05T08:57:38.762Z,56.21
2023-02-05T08:58:42.333Z,55.96
2023-02-05T08:59:45.367Z,55.86
2023-02-05T09:00:48.623Z,55.82
2023-02-05T09:01:51.756Z,55.79
2023-02-05T09:02:54.825Z,55.79
2023-02-05T09:03:57.953Z,55.63
2023-02-05T09:05:08.906Z,55.59
2023-02-05T09:06:08.272Z,55.49
2023-02-05T09:07:11.446Z,55.48
2023-02-05T09:08:14.797Z,55.28
2023-02-05T09:09:18.130Z,55.20
2023-02-05T09:10:21.408Z,54.98
2023-02-05T09:11:27.988Z,54.75
2023-02-05T09:12:30.958Z,54.79
2023-02-05T09:13:34.588Z,54.64
2023-02-05T09:14:38.860Z,54.61
2023-02-05T09:15:43.424Z,54.49
2023-02-05T09:16:46.553Z,54.21
2023-02-05T09:17:49.702Z,54.03
2023-02-05T09:18:59.574Z,54.07
2023-02-05T09:20:03.604Z,53.80
2023-02-05T09:21:08.170Z,53.53
2023-02-05T09:22:12.391Z,53.46
2023-02-05T09:23:17.253Z,53.44
2023-02-05T09:24:20.274Z,53.35
2023-02-05T09:25:23.775Z,53.24
2023-02-05T09:26:27.414Z,53.20
2023-02-05T09:27:30.598Z,52.92
2023-02-05T09:28:33.820Z,52.84
2023-02-05T09:29:37.060Z,52.74
2023-02-05T09:30:43.435Z,52.76
2023-02-05T09:31:46.663Z,52.85
2023-02-05T09:32:50.149Z,52.80
2023-02-05T09:33:55.145Z,52.82
2023-02-05T09:34:58.297Z,52.71
2023-02-05T09:37:21.988Z,52.85
2023-02-05T09:38:25.065Z,52.84
2023-02-05T09:40:16.528Z,52.71
2023-02-05T09:40:44.669Z,52.78
2023-02-05T09:42:13.239Z,52.67
2023-02-05T09:43:23.153Z,52.60
2023-02-05T09:44:51.132Z,52.67
2023-02-05T09:46:03.848Z,52.59
2023-02-05T09:47:19.648Z,52.35
2023-02-05T09:48:51.437Z,52.27
2023-02-05T09:50:06.113Z,52.17
2023-02-05T09:51:12.653Z,51.83
2023-02-05T09:52:29.044Z,51.63
2023-02-05T09:53:36.025Z,51.54
2023-02-05T09:54:42.772Z,51.53
2023-02-05T09:55:47.089Z,51.45
2023-02-05T09:56:52.644Z,51.45
2023-02-05T09:58:01.988Z,51.52
2023-02-05T09:59:05.950Z,51.42
2023-02-05T10:00:22.476Z,51.01
2023-02-05T10:01:37.832Z,50.76
2023-02-05T10:02:59.603Z,50.77
2023-02-05T10:04:05.415Z,50.69
2023-02-05T10:05:14.309Z,50.58
2023-02-05T10:06:57.180Z,50.52
2023-02-05T10:08:15.644Z,50.55
2023-02-05T10:09:38.860Z,50.28
2023-02-05T10:10:47.822Z,49.98
2023-02-05T10:11:54.498Z,50.11
2023-02-05T10:13:17.627Z,50.05
2023-02-05T10:14:49.191Z,50.15
2023-02-05T10:16:04.277Z,49.85
2023-02-05T10:17:27.974Z,49.81
2023-02-05T10:19:03.229Z,49.70
2023-02-05T10:20:43.410Z,49.60
2023-02-05T10:22:01.935Z,49.69
2023-02-05T10:23:29.904Z,49.60
2023-02-05T10:24:57.602Z,49.74
2023-02-05T10:26:12.498Z,49.88
2023-02-05T10:27:24.025Z,49.99
2023-02-05T10:29:05.725Z,49.75
2023-02-05T10:30:29.460Z,49.72
2023-02-05T10:31:52.835Z,49.72
2023-02-05T10:33:05.136Z,49.84
2023-02-05T10:34:44.788Z,49.60
2023-02-05T10:36:03.246Z,49.58
2023-02-05T10:37:18.526Z,49.57
2023-02-05T10:38:24.636Z,49.57
2023-02-05T10:39:30.037Z,49.41
2023-02-05T10:40:38.716Z,49.32
2023-02-05T10:41:51.242Z,49.27
2023-02-05T10:43:14.155Z,49.34
2023-02-05T10:44:35.626Z,49.52
2023-02-05T10:45:39.112Z,49.53
2023-02-05T10:46:45.189Z,49.42
2023-02-05T10:48:08.094Z,49.51
2023-02-05T10:49:18.141Z,49.70
2023-02-05T10:50:55.522Z,49.71
2023-02-05T10:51:58.506Z,49.37
2023-02-05T10:53:01.525Z,49.36
2023-02-05T10:54:05.790Z,49.41
2023-02-05T10:55:13.727Z,49.67
2023-02-05T10:56:18.762Z,49.61
2023-02-05T10:57:23.433Z,49.74
2023-02-05T10:58:32.957Z,49.79
2023-02-05T10:59:39.514Z,49.72
2023-02-05T11:00:42.801Z,49.73
2023-02-05T11:01:46.487Z,49.91
2023-02-05T11:02:54.294Z,49.89
2023-02-05T11:04:06.940Z,50.01
2023-02-05T11:05:19.676Z,49.93
2023-02-05T11:06:25.925Z,49.86
2023-02-05T11:08:48.377Z,49.90
2023-02-05T11:09:51.349Z,49.75
2023-02-05T11:10:54.332Z,49.79
2023-02-05T11:12:06.470Z,49.87
2023-02-05T11:13:21.620Z,49.93
2023-02-05T11:14:38.898Z,49.96
2023-02-05T11:15:54.497Z,49.99
2023-02-05T11:16:58.151Z,49.96
2023-02-05T11:18:06.943Z,49.97
2023-02-05T11:19:28.671Z,49.99
2023-02-05T11:20:34.964Z,49.94
2023-02-05T11:21:50.705Z,49.92
2023-02-05T11:23:08.974Z,49.92
2023-02-05T11:24:34.001Z,49.91
2023-02-05T11:25:38.791Z,49.93
2023-02-05T11:26:42.174Z,49.91
2023-02-05T11:27:59.723Z,49.70
2023-02-05T11:29:06.350Z,49.56
2023-02-05T11:31:37.239Z,49.45
2023-02-05T11:32:40.210Z,49.28
2023-02-05T11:33:43.489Z,49.19
2023-02-05T11:34:46.620Z,49.03
2023-02-05T11:36:02.300Z,48.96
2023-02-05T11:37:05.565Z,48.89
2023-02-05T11:38:11.918Z,48.83
2023-02-05T11:39:24.567Z,48.83
2023-02-05T11:40:30.561Z,48.92
2023-02-05T11:41:38.316Z,49.07
2023-02-05T11:42:44.877Z,49.10
2023-02-05T11:43:52.461Z,48.94
2023-02-05T11:44:58.630Z,49.06
2023-02-05T11:46:05.431Z,49.09
2023-02-05T11:47:08.918Z,49.27
2023-02-05T11:49:38.191Z,49.56
2023-02-05T11:50:43.542Z,49.60
2023-02-05T11:51:51.172Z,49.69
2023-02-05T11:52:56.014Z,49.69
2023-02-05T11:54:02.050Z,49.66
2023-02-05T11:55:07.674Z,49.62
2023-02-05T11:56:14.851Z,49.73
2023-02-05T11:57:21.391Z,49.73
2023-02-05T11:58:36.813Z,49.53
2023-02-05T11:59:38.753Z,49.41
2023-02-05T12:02:29.867Z,49.21
2023-02-05T12:03:34.797Z,49.21
2023-02-05T12:04:41.323Z,49.13
2023-02-05T12:05:50.469Z,49.12
2023-02-05T12:06:57.494Z,48.88
2023-02-05T12:08:19.311Z,48.84
2023-02-05T12:09:24.748Z,48.99
2023-02-05T12:10:36.224Z,49.05
2023-02-05T12:12:00.391Z,49.12
2023-02-05T12:13:09.668Z,49.18
2023-02-05T12:14:34.280Z,49.05
2023-02-05T12:15:43.613Z,49.12
2023-02-05T12:16:59.299Z,49.02
2023-02-05T12:18:18.104Z,49.04
2023-02-05T12:19:33.920Z,49.00
2023-02-05T12:20:43.356Z,49.05
2023-02-05T12:21:52.678Z,49.12
2023-02-05T12:23:16.770Z,49.22
2023-02-05T12:24:47.749Z,49.13
2023-02-05T12:26:18.271Z,48.95
2023-02-05T12:27:33.885Z,48.90
2023-02-05T12:28:49.100Z,49.03
2023-02-05T12:30:04.480Z,48.86
2023-02-05T12:31:17.642Z,48.89
2023-02-05T12:32:44.575Z,48.84
2023-02-05T12:34:07.601Z,48.74
2023-02-05T12:35:14.277Z,48.59
2023-02-05T12:36:23.850Z,48.55
2023-02-05T12:37:38.606Z,48.47
2023-02-05T12:38:50.986Z,48.47
2023-02-05T12:40:00.318Z,48.44
2023-02-05T12:41:26.381Z,48.45
2023-02-05T12:42:33.239Z,48.46
2023-02-05T12:43:42.627Z,48.33
2023-02-05T12:44:57.878Z,48.18
2023-02-05T12:46:19.623Z,48.12
2023-02-05T12:47:32.430Z,48.18
2023-02-05T12:48:51.339Z,48.02
2023-02-05T12:50:03.860Z,47.61
2023-02-05T12:51:13.796Z,47.33
2023-02-05T12:52:43.192Z,47.21
2023-02-05T12:53:58.800Z,47.14
2023-02-05T12:55:25.282Z,47.17
2023-02-05T12:56:37.979Z,47.24
2023-02-05T12:57:50.667Z,47.38
2023-02-05T12:58:57.628Z,47.42
2023-02-05T13:00:04.466Z,47.52
2023-02-05T13:01:14.110Z,47.62
2023-02-05T13:02:26.949Z,47.71
2023-02-05T13:03:38.426Z,47.75
2023-02-05T13:04:45.154Z,47.98
2023-02-05T13:05:54.437Z,48.03
2023-02-05T13:07:13.489Z,47.95
2023-02-05T13:08:22.864Z,48.10
2023-02-05T13:09:32.344Z,48.17
2023-02-05T13:10:54.088Z,48.17
2023-02-05T13:12:06.803Z,48.33
2023-02-05T13:13:13.303Z,48.48
2023-02-05T13:14:23.226Z,48.56
2023-02-05T13:15:33.071Z,48.64
2023-02-05T13:16:45.901Z,48.63
2023-02-05T13:18:09.163Z,48.70
2023-02-05T13:19:47.736Z,48.72
2023-02-05T13:21:15.641Z,48.97
2023-02-05T13:22:55.683Z,49.03
2023-02-05T13:24:35.682Z,49.26
2023-02-05T13:26:01.006Z,49.49
2023-02-05T13:27:25.366Z,49.68
2023-02-05T13:28:41.141Z,49.81
2023-02-05T13:29:49.899Z,50.04
2023-02-05T13:30:55.531Z,50.28
2023-02-05T13:32:14.797Z,50.29
2023-02-05T13:33:08.697Z,50.43
2023-02-05T13:34:15.380Z,50.50
2023-02-05T13:35:20.144Z,50.54
2023-02-05T13:36:46.354Z,50.73
2023-02-05T13:38:10.162Z,50.79
2023-02-05T13:39:22.644Z,50.88
2023-02-05T13:42:00.431Z,51.11
2023-02-05T13:43:12.786Z,51.10
2023-02-05T13:44:32.164Z,51.23
2023-02-05T13:46:01.181Z,51.28
2023-02-05T13:47:10.877Z,51.48
2023-02-05T13:48:29.060Z,51.66
2023-02-05T13:49:52.467Z,51.77
2023-02-05T13:51:23.297Z,51.90
2023-02-05T13:52:57.157Z,51.97
2023-02-05T13:54:15.978Z,52.11
2023-02-05T13:55:55.592Z,52.20
2023-02-05T13:57:17.753Z,52.31
2023-02-05T13:58:33.631Z,52.56
2023-02-05T13:59:43.375Z,52.80
2023-02-05T14:01:01.967Z,53.04
2023-02-05T14:03:35.308Z,53.43
2023-02-05T14:04:40.185Z,53.57
2023-02-05T14:05:43.495Z,53.65
2023-02-05T14:07:05.273Z,53.78
2023-02-05T14:08:21.167Z,53.98
2023-02-05T14:09:34.078Z,54.13
2023-02-05T14:10:44.689Z,54.32
2023-02-05T14:11:56.894Z,54.44
2023-02-05T14:13:12.487Z,54.76
2023-02-05T14:14:27.695Z,54.81
2023-02-05T14:15:39.824Z,54.79
2023-02-05T14:16:44.545Z,54.98
2023-02-05T14:17:51.305Z,55.04
2023-02-05T14:19:04.182Z,55.20
2023-02-05T14:20:32.704Z,55.37
2023-02-05T14:21:39.468Z,55.55
2023-02-05T14:22:44.420Z,55.77
2023-02-05T14:23:51.267Z,55.91
2023-02-05T14:24:54.589Z,56.05
2023-02-05T14:26:07.196Z,55.97
2023-02-05T14:27:39.671Z,56.19
2023-02-05T14:28:49.229Z,56.41
2023-02-05T14:29:53.111Z,56.60
2023-02-05T14:31:00.564Z,57.01
2023-02-05T14:32:04.178Z,57.03
2023-02-05T14:33:30.616Z,57.15
2023-02-05T14:34:37.318Z,57.51
2023-02-05T14:35:40.574Z,57.45
2023-02-05T14:36:45.762Z,57.72
2023-02-05T14:37:49.450Z,57.98
2023-02-05T14:39:00.718Z,58.06
2023-02-05T14:40:32.490Z,58.11
2023-02-05T14:41:47.168Z,58.20
2023-02-05T14:43:08.472Z,58.51
2023-02-05T14:44:05.669Z,58.71
2023-02-05T14:45:12.638Z,58.83